Time;durP1;ratioP1;P1;durP2;ratioP2;P2;SDS_P1;SDS_P2;PMS_P1;PMS_P2;Temp;Humidity;BMP_temperature;BMP_pressure;BME280_temperature;BME280_humidity;BME280_pressure;Samples;Min_cycle;Max_cycle;Signal;HPM_P1;HPM_P2
2023/03/23 00:00:14;;;;;;;7.72;5.38;;;;;;;13.08;67.54;99862.66;683198;29;1265;-81
2023/03/23 00:00:36;;;;;;;8.23;5.25;;;;;;;13.20;67.05;99876.69;680533;29;1180;-81
2023/03/23 00:00:56;;;;;;;7.20;5.13;;;;;;;13.09;67.27;99868.78;683229;28;1456;-81
2023/03/23 00:01:19;;;;;;;6.28;4.90;;;;;;;13.08;67.62;99881.00;680516;28;1171;-81
2023/03/23 00:01:40;;;;;;;7.43;5.00;;;;;;;13.04;67.48;99863.53;685802;28;1355;-82
2023/03/23 00:02:00;;;;;;;8.10;5.20;;;;;;;13.11;67.50;99873.16;683252;29;1188;-82
2023/03/23 00:02:27;;;;;;;8.10;5.50;;;;;;;13.01;67.76;99861.78;683601;28;1061;-82
2023/03/23 00:02:48;;;;;;;7.22;5.63;;;;;;;13.00;67.78;99864.38;680635;29;1015;-81
2023/03/23 00:03:09;;;;;;;7.25;5.40;;;;;;;13.03;67.67;99880.09;680871;29;1271;-81
2023/03/23 00:03:31;;;;;;;8.07;5.50;;;;;;;13.00;67.72;99859.16;680480;29;1195;-81
2023/03/23 00:03:56;;;;;;;7.05;5.32;;;;;;;13.06;67.67;99874.88;680691;29;863;-81
2023/03/23 00:04:17;;;;;;;8.05;5.57;;;;;;;13.02;67.57;99862.63;683255;29;1210;-81
2023/03/23 00:04:38;;;;;;;7.50;5.22;;;;;;;13.03;67.92;99872.25;685824;28;1134;-81
2023/03/23 00:05:00;;;;;;;9.53;5.83;;;;;;;13.03;67.92;99856.53;685867;28;1034;-82
2023/03/23 00:05:20;;;;;;;8.27;5.80;;;;;;;13.06;67.83;99861.78;683244;29;1105;-81
2023/03/23 00:05:41;;;;;;;7.57;5.65;;;;;;;13.11;67.89;99857.44;688602;28;977;-81
2023/03/23 00:06:04;;;;;;;7.47;5.43;;;;;;;13.09;68.10;99861.78;688291;28;1109;-82
2023/03/23 00:06:26;;;;;;;8.63;5.43;;;;;;;13.10;67.88;99866.16;688153;28;1056;-82
2023/03/23 00:06:47;;;;;;;7.97;5.20;;;;;;;13.10;67.55;99858.28;685668;28;1241;-82
2023/03/23 00:07:08;;;;;;;5.65;5.05;;;;;;;13.17;67.46;99872.31;688405;28;1379;-81
2023/03/23 00:07:29;;;;;;;5.80;5.20;;;;;;;13.09;67.78;99853.94;685911;28;1026;-82
2023/03/23 00:07:52;;;;;;;6.00;5.40;;;;;;;13.11;67.58;99860.06;688534;28;1191;-82
2023/03/23 00:08:14;;;;;;;6.28;5.55;;;;;;;13.18;67.47;99867.91;691230;28;1122;-82
2023/03/23 00:08:44;;;;;;;6.78;5.43;;;;;;;13.20;67.44;99867.06;683074;29;1353;-81
2023/03/23 00:09:05;;;;;;;7.43;5.22;;;;;;;13.11;67.56;99857.44;683067;29;1123;-82
2023/03/23 00:09:25;;;;;;;6.68;4.80;;;;;;;13.13;67.34;99863.56;680606;29;1286;-82
2023/03/23 00:09:53;;;;;;;7.07;4.87;;;;;;;13.21;67.69;99867.94;685871;28;1073;-81
2023/03/23 00:10:14;;;;;;;9.50;5.30;;;;;;;13.14;67.25;99852.22;685819;28;1250;-81
2023/03/23 00:10:35;;;;;;;9.75;5.40;;;;;;;13.18;67.56;99865.31;688433;28;1227;-81
2023/03/23 00:10:58;;;;;;;8.45;5.10;;;;;;;13.19;67.61;99864.44;683108;29;809;-81
2023/03/23 00:11:20;;;;;;;7.45;5.30;;;;;;;13.11;67.75;99846.09;684659;28;1259;-82
2023/03/23 00:11:42;;;;;;;8.45;5.65;;;;;;;13.12;67.48;99848.72;685798;28;1088;-82
2023/03/23 00:12:05;;;;;;;8.30;5.78;;;;;;;13.12;67.50;99858.31;685798;28;1290;-82
2023/03/23 00:12:33;;;;;;;6.80;5.50;;;;;;;13.15;68.09;99864.44;688389;28;1123;-82
2023/03/23 00:12:56;;;;;;;7.85;5.40;;;;;;;13.13;67.62;99850.47;683166;28;1279;-82
2023/03/23 00:13:19;;;;;;;9.60;5.40;;;;;;;13.14;67.71;99856.56;688416;28;1180;-82
2023/03/23 00:13:42;;;;;;;9.30;5.15;;;;;;;13.20;67.44;99861.81;685848;28;969;-82
2023/03/23 00:14:02;;;;;;;9.48;5.53;;;;;;;13.20;67.67;99855.72;683198;29;1269;-82
2023/03/23 00:14:24;;;;;;;9.45;5.60;;;;;;;13.22;67.78;99856.59;683273;29;1104;-82
2023/03/23 00:14:45;;;;;;;9.80;5.90;;;;;;;13.15;67.68;99847.84;683264;28;1321;-81
2023/03/23 00:15:12;;;;;;;7.90;5.53;;;;;;;13.18;67.47;99846.97;688442;28;1427;-82
2023/03/23 00:15:35;;;;;;;8.13;5.10;;;;;;;13.18;67.58;99852.19;687424;28;1041;-82
2023/03/23 00:15:56;;;;;;;8.73;4.80;;;;;;;13.18;67.52;99846.97;688595;28;843;-82
2023/03/23 00:16:20;;;;;;;8.50;4.90;;;;;;;13.20;67.49;99837.38;688538;28;1161;-82
2023/03/23 00:16:41;;;;;;;7.53;4.78;;;;;;;13.20;67.71;99835.63;685819;28;1038;-81
2023/03/23 00:17:02;;;;;;;6.93;4.80;;;;;;;13.27;67.21;99853.09;685676;28;1250;-81
2023/03/23 00:17:23;;;;;;;6.40;4.90;;;;;;;13.16;67.57;99836.50;685960;28;1002;-81
2023/03/23 00:17:43;;;;;;;8.20;5.35;;;;;;;13.14;67.58;99836.50;683155;28;1186;-82
2023/03/23 00:18:04;;;;;;;9.40;5.63;;;;;;;13.22;67.56;99846.97;683067;28;1175;-81
2023/03/23 00:18:25;;;;;;;9.48;5.70;;;;;;;13.22;67.55;99846.97;685785;28;1179;-81
2023/03/23 00:18:47;;;;;;;7.82;5.40;;;;;;;13.23;67.71;99846.13;685808;28;2008;-82
2023/03/23 00:19:12;;;;;;;6.15;5.00;;;;;;;13.25;67.60;99853.97;685653;28;1102;-81
2023/03/23 00:19:34;;;;;;;7.10;5.38;;;;;;;13.24;67.83;99849.59;685770;28;1118;-81
2023/03/23 00:19:55;;;;;;;6.70;5.38;;;;;;;13.24;67.46;99852.22;685982;28;854;-81
2023/03/23 00:20:16;;;;;;;6.07;5.45;;;;;;;13.23;67.52;99837.38;683105;28;1183;-81
2023/03/23 00:20:37;;;;;;;5.70;5.10;;;;;;;13.31;67.46;99861.84;685776;28;1285;-81
2023/03/23 00:20:58;;;;;;;6.90;5.28;;;;;;;13.26;67.60;99851.38;691181;28;1520;-82
2023/03/23 00:21:20;;;;;;;8.60;5.40;;;;;;;13.36;67.46;99860.13;685719;28;1165;-80
2023/03/23 00:21:42;;;;;;;8.63;5.30;;;;;;;13.43;67.06;99861.88;683093;29;1331;-81
2023/03/23 00:22:03;;;;;;;8.35;5.40;;;;;;;13.36;67.30;99873.22;685790;28;1092;-82
2023/03/23 00:22:24;;;;;;;7.40;5.20;;;;;;;13.34;67.35;99874.94;685121;28;1231;-80
2023/03/23 00:22:45;;;;;;;8.57;5.18;;;;;;;13.37;67.28;99861.88;683227;29;1041;-81
2023/03/23 00:23:07;;;;;;;8.65;5.18;;;;;;;13.40;67.03;99858.38;680611;29;980;-82
2023/03/23 00:23:28;;;;;;;8.70;5.00;;;;;;;13.35;67.39;99842.66;682006;28;1384;-82
2023/03/23 00:23:49;;;;;;;7.18;4.72;;;;;;;13.43;67.08;99846.16;685837;28;1094;-82
2023/03/23 00:24:18;;;;;;;6.50;4.70;;;;;;;13.32;67.04;99829.53;688511;28;1031;-82
2023/03/23 00:24:39;;;;;;;7.90;4.82;;;;;;;13.38;66.99;99840.03;685809;28;1476;-81
2023/03/23 00:25:00;;;;;;;7.25;4.68;;;;;;;13.37;66.89;99854.00;685821;28;1192;-82
2023/03/23 00:25:20;;;;;;;8.35;4.90;;;;;;;13.43;66.94;99853.13;685783;28;1256;-82
2023/03/23 00:25:41;;;;;;;6.73;5.13;;;;;;;13.43;66.82;99855.75;685669;28;1213;-81
2023/03/23 00:26:01;;;;;;;7.00;5.38;;;;;;;13.47;66.60;99851.41;685798;28;1305;-81
2023/03/23 00:26:22;;;;;;;6.15;5.22;;;;;;;13.45;66.43;99845.28;685856;28;1107;-81
2023/03/23 00:26:45;;;;;;;6.00;4.90;;;;;;;13.51;66.38;99853.16;685790;28;1014;-82
2023/03/23 00:27:06;;;;;;;8.75;4.80;;;;;;;13.41;66.46;99837.41;680529;29;1113;-81
2023/03/23 00:27:26;;;;;;;8.50;4.60;;;;;;;13.46;66.56;99841.78;688487;28;1248;-82
2023/03/23 00:27:47;;;;;;;8.52;4.65;;;;;;;13.43;66.73;99842.66;688452;28;1072;-81
2023/03/23 00:28:08;;;;;;;5.63;4.90;;;;;;;13.43;66.57;99840.03;685940;28;994;-81
2023/03/23 00:28:29;;;;;;;5.85;5.00;;;;;;;13.36;66.54;99831.31;683140;29;1310;-82
2023/03/23 00:28:51;;;;;;;6.28;5.20;;;;;;;13.39;66.59;99828.66;685675;28;1191;-81
2023/03/23 00:29:18;;;;;;;6.45;5.32;;;;;;;13.41;66.65;99839.16;685770;28;1316;-81
2023/03/23 00:29:40;;;;;;;5.68;5.00;;;;;;;13.56;66.29;99838.28;685760;28;1301;-81
2023/03/23 00:30:01;;;;;;;5.22;4.60;;;;;;;13.47;66.41;99839.19;677205;29;1374;-81
2023/03/23 00:30:21;;;;;;;5.85;4.55;;;;;;;13.47;66.60;99833.06;680417;29;1003;-81
2023/03/23 00:30:44;;;;;;;6.35;4.65;;;;;;;13.48;66.29;99842.66;683102;29;1293;-81
2023/03/23 00:31:06;;;;;;;7.55;4.90;;;;;;;13.47;66.59;99841.81;685383;28;1462;-81
2023/03/23 00:31:34;;;;;;;7.18;5.07;;;;;;;13.42;66.38;99831.28;680565;29;1274;-82
2023/03/23 00:31:56;;;;;;;6.35;4.78;;;;;;;13.40;66.67;99838.28;680454;29;1348;-81
2023/03/23 00:32:17;;;;;;;5.38;4.50;;;;;;;13.39;66.66;99828.66;680579;29;1088;-81
2023/03/23 00:32:38;;;;;;;7.22;4.43;;;;;;;13.39;66.40;99828.66;680473;29;1095;-81
2023/03/23 00:32:59;;;;;;;7.22;4.40;;;;;;;13.54;66.28;99832.19;683233;28;1165;-81
2023/03/23 00:33:19;;;;;;;6.70;4.20;;;;;;;13.64;66.04;99831.31;680516;29;1172;-81
2023/03/23 00:33:42;;;;;;;5.40;4.35;;;;;;;13.67;65.78;99836.56;683108;29;1265;-82
2023/03/23 00:34:04;;;;;;;6.38;4.68;;;;;;;13.55;65.75;99818.19;680373;29;1110;-81
2023/03/23 00:34:25;;;;;;;6.57;4.68;;;;;;;13.61;65.81;99836.56;680428;29;1328;-82
2023/03/23 00:34:48;;;;;;;8.20;4.88;;;;;;;13.68;65.73;99832.19;680509;29;1102;-81
2023/03/23 00:35:08;;;;;;;8.60;4.70;;;;;;;13.66;65.78;99819.06;685820;28;1109;-81
2023/03/23 00:35:30;;;;;;;7.13;4.53;;;;;;;13.63;65.74;99832.19;683119;29;1228;-81
2023/03/23 00:35:53;;;;;;;7.50;4.80;;;;;;;13.59;65.88;99826.94;683300;28;1231;-81
2023/03/23 00:36:14;;;;;;;7.85;5.00;;;;;;;13.55;65.84;99831.31;680037;29;1588;-80
2023/03/23 00:36:35;;;;;;;8.25;4.90;;;;;;;13.46;66.12;99826.06;679426;29;1207;-82
2023/03/23 00:36:56;;;;;;;6.43;4.70;;;;;;;13.52;66.06;99815.59;680442;29;928;-82
2023/03/23 00:37:17;;;;;;;6.20;4.60;;;;;;;13.66;66.07;99828.69;685816;28;1156;-82
2023/03/23 00:37:38;;;;;;;6.00;4.57;;;;;;;13.67;65.62;99819.94;685682;28;1303;-82
2023/03/23 00:37:58;;;;;;;6.68;4.57;;;;;;;13.74;65.86;99831.31;685848;28;1408;-81
2023/03/23 00:38:24;;;;;;;6.50;4.43;;;;;;;13.59;65.68;99826.94;685863;28;1195;-81
2023/03/23 00:38:46;;;;;;;5.85;4.53;;;;;;;13.54;65.96;99819.94;691078;28;1899;-81
2023/03/23 00:39:07;;;;;;;5.93;4.40;;;;;;;13.54;66.37;99825.19;680434;29;1393;-81
2023/03/23 00:39:28;;;;;;;5.83;4.60;;;;;;;13.47;66.37;99814.69;683141;29;1002;-82
2023/03/23 00:39:51;;;;;;;6.57;4.60;;;;;;;13.51;66.38;99824.34;683103;29;1129;-82
2023/03/23 00:40:12;;;;;;;6.20;4.60;;;;;;;13.46;66.38;99818.19;685647;28;1261;-81
2023/03/23 00:40:35;;;;;;;6.70;4.50;;;;;;;13.51;66.32;99825.19;682986;29;1410;-81
2023/03/23 00:40:57;;;;;;;6.32;4.28;;;;;;;13.50;66.20;99833.03;685778;28;1142;-82
2023/03/23 00:41:17;;;;;;;6.47;4.40;;;;;;;13.46;66.51;99833.94;685813;28;1076;-81
2023/03/23 00:41:38;;;;;;;7.88;4.32;;;;;;;13.39;66.37;99814.72;688349;28;1218;-81
2023/03/23 00:42:01;;;;;;;7.38;4.35;;;;;;;13.45;66.43;99819.94;680516;29;1301;-81
2023/03/23 00:42:56;;;;;;;6.82;4.38;;;;;;;13.54;66.22;99840.06;682583;28;1278;-81
2023/03/23 00:43:18;;;;;;;7.18;4.20;;;;;;;13.44;66.36;99818.19;685702;28;1022;-82
2023/03/23 00:43:39;;;;;;;5.38;4.00;;;;;;;13.42;66.35;99814.69;685911;28;1470;-82
2023/03/23 00:44:00;;;;;;;4.32;3.92;;;;;;;13.46;66.15;99828.69;688462;28;1451;-82
2023/03/23 00:44:23;;;;;;;4.40;4.00;;;;;;;13.45;66.27;99819.94;683154;29;1075;-81
2023/03/23 00:44:43;;;;;;;4.57;4.18;;;;;;;13.42;66.27;99818.19;683209;29;800;-82
2023/03/23 00:45:10;;;;;;;4.75;4.15;;;;;;;13.45;66.01;99829.56;682966;29;1275;-81
2023/03/23 00:45:31;;;;;;;4.60;4.10;;;;;;;13.40;66.40;99822.56;685803;28;1258;-80
2023/03/23 00:45:52;;;;;;;5.20;4.40;;;;;;;13.37;66.55;99822.56;688474;28;1249;-82
2023/03/23 00:46:13;;;;;;;5.20;4.47;;;;;;;13.46;66.31;99816.44;685843;28;1266;-81
2023/03/23 00:46:34;;;;;;;5.72;4.63;;;;;;;13.48;66.25;99819.06;685750;28;1093;-81
2023/03/23 00:46:56;;;;;;;5.97;4.70;;;;;;;13.45;66.44;99825.19;685614;28;1130;-81
2023/03/23 00:47:17;;;;;;;6.22;5.18;;;;;;;13.51;66.23;99829.56;685618;28;1269;-81
2023/03/23 00:47:37;;;;;;;6.60;5.07;;;;;;;13.45;66.32;99819.94;685860;28;882;-81
2023/03/23 00:48:01;;;;;;;6.30;5.17;;;;;;;13.46;66.14;99826.06;683166;28;1037;-81
2023/03/23 00:48:24;;;;;;;7.28;5.00;;;;;;;13.49;66.31;99815.56;682948;29;1417;-81
2023/03/23 00:48:46;;;;;;;6.40;4.70;;;;;;;13.52;66.04;99826.06;683076;29;1240;-80
2023/03/23 00:49:09;;;;;;;7.22;4.65;;;;;;;13.48;65.96;99819.06;680534;29;1027;-81
2023/03/23 00:49:29;;;;;;;5.90;4.43;;;;;;;13.51;65.94;99813.84;683212;29;1191;-81
2023/03/23 00:49:52;;;;;;;6.57;4.40;;;;;;;13.46;65.67;99815.59;683116;29;1160;-82
2023/03/23 00:50:13;;;;;;;5.57;4.25;;;;;;;13.45;66.07;99812.06;683151;29;1097;-81
2023/03/23 00:50:34;;;;;;;7.13;4.53;;;;;;;13.49;66.17;99811.22;679640;29;1320;-81
2023/03/23 00:50:55;;;;;;;7.55;4.50;;;;;;;13.55;66.18;99826.06;685877;28;1212;-81
2023/03/23 00:51:17;;;;;;;7.60;4.40;;;;;;;13.54;65.88;99817.31;691038;28;1126;-81
2023/03/23 00:51:39;;;;;;;7.00;4.28;;;;;;;13.51;65.85;99819.09;688306;28;1193;-81
2023/03/23 00:51:59;;;;;;;6.85;4.50;;;;;;;13.53;65.63;99819.97;685830;28;1179;-81
2023/03/23 00:52:20;;;;;;;8.07;4.55;;;;;;;13.52;66.09;99820.84;680306;28;1216;-81
2023/03/23 00:52:41;;;;;;;6.80;4.20;;;;;;;13.51;66.11;99816.47;683084;29;878;-81
2023/03/23 00:53:01;;;;;;;7.00;4.40;;;;;;;13.49;65.95;99816.47;683186;29;1011;-81
2023/03/23 00:53:22;;;;;;;5.78;4.65;;;;;;;13.46;66.02;99802.47;685741;28;989;-81
2023/03/23 00:53:43;;;;;;;5.72;4.70;;;;;;;13.51;65.96;99813.84;685713;28;1172;-81
2023/03/23 00:54:04;;;;;;;4.97;4.32;;;;;;;13.55;65.97;99820.81;682710;29;1245;-83
2023/03/23 00:54:25;;;;;;;4.83;4.10;;;;;;;13.51;66.16;99808.59;680260;29;1143;-82
2023/03/23 00:54:46;;;;;;;6.38;4.20;;;;;;;13.55;66.09;99818.19;685636;28;1512;-81
2023/03/23 00:55:08;;;;;;;6.22;4.20;;;;;;;13.53;65.93;99801.59;683029;29;1419;-81
2023/03/23 00:55:30;;;;;;;6.30;4.20;;;;;;;13.51;65.98;99798.97;683027;28;1169;-82
2023/03/23 00:55:50;;;;;;;6.95;4.30;;;;;;;13.56;65.91;99806.84;685710;28;1061;-81
2023/03/23 00:56:12;;;;;;;7.27;4.53;;;;;;;13.53;65.95;99801.59;688436;28;1048;-81
2023/03/23 00:56:32;;;;;;;6.82;4.45;;;;;;;13.56;65.83;99798.97;685756;28;1303;-82
2023/03/23 00:56:54;;;;;;;5.33;4.30;;;;;;;13.56;66.10;99807.72;683028;28;1489;-82
2023/03/23 00:57:16;;;;;;;4.95;4.25;;;;;;;13.57;65.57;99808.59;683146;29;1156;-81
2023/03/23 00:57:37;;;;;;;4.93;4.03;;;;;;;13.54;65.78;99803.34;691084;28;1508;-82
2023/03/23 00:57:57;;;;;;;4.40;4.00;;;;;;;13.54;65.77;99808.59;688331;28;1125;-81
2023/03/23 00:58:18;;;;;;;4.55;4.07;;;;;;;13.53;65.75;99809.47;682937;29;1172;-81
2023/03/23 00:58:39;;;;;;;5.13;4.57;;;;;;;13.50;65.89;99812.06;685846;28;1110;-82
2023/03/23 00:59:00;;;;;;;5.10;4.43;;;;;;;13.48;65.67;99804.22;682578;29;1907;-81
2023/03/23 00:59:21;;;;;;;4.43;4.00;;;;;;;13.52;65.67;99799.88;683078;29;1101;-80
2023/03/23 00:59:42;;;;;;;4.57;4.07;;;;;;;13.51;65.96;99803.38;685734;28;1292;-81
2023/03/23 01:00:08;;;;;;;4.67;4.17;;;;;;;13.49;65.77;99794.59;683032;28;1061;-80
2023/03/23 01:00:30;;;;;;;4.50;3.80;;;;;;;13.53;65.96;99806.84;683098;29;1111;-81
2023/03/23 01:00:51;;;;;;;4.82;3.97;;;;;;;13.49;66.07;99798.13;683256;28;1138;-81
2023/03/23 01:01:12;;;;;;;5.60;4.00;;;;;;;13.49;66.11;99795.50;683373;29;1106;-81
2023/03/23 01:01:35;;;;;;;6.85;4.35;;;;;;;13.52;65.91;99812.97;688584;28;1006;-81
2023/03/23 01:01:57;;;;;;;6.50;4.03;;;;;;;13.48;66.15;99803.34;685921;28;1281;-82
2023/03/23 01:02:19;;;;;;;6.05;4.10;;;;;;;13.54;66.01;99808.59;685924;28;1154;-82
2023/03/23 01:02:40;;;;;;;5.70;3.80;;;;;;;13.54;66.01;99804.22;683331;29;1072;-81
2023/03/23 01:03:01;;;;;;;6.00;4.07;;;;;;;13.56;65.90;99818.22;686116;28;1299;-81
2023/03/23 01:03:21;;;;;;;6.07;4.00;;;;;;;13.61;65.92;99819.94;688955;28;1021;-82
2023/03/23 01:03:42;;;;;;;5.87;4.00;;;;;;;13.60;65.88;99812.97;691319;28;1345;-81
2023/03/23 01:04:06;;;;;;;4.80;3.50;;;;;;;13.58;65.89;99810.31;685969;28;1296;-82
2023/03/23 01:04:28;;;;;;;4.75;3.70;;;;;;;13.60;65.59;99812.97;686197;28;1254;-82
2023/03/23 01:04:51;;;;;;;4.30;3.90;;;;;;;13.53;65.84;99807.72;686184;28;1151;-82
2023/03/23 01:05:12;;;;;;;4.25;3.85;;;;;;;13.59;65.40;99812.09;688845;28;954;-82
2023/03/23 01:05:37;;;;;;;4.20;3.70;;;;;;;13.61;65.02;99814.69;686162;28;1044;-82
2023/03/23 01:06:12;;;;;;;4.18;3.75;;;;;;;13.63;65.47;99818.22;686105;28;1210;-82
2023/03/23 01:06:40;;;;;;;5.03;3.75;;;;;;;13.63;65.51;99823.47;688676;28;1181;-81
2023/03/23 01:07:00;;;;;;;5.22;3.60;;;;;;;13.61;65.70;99820.84;685911;28;1261;-81
2023/03/23 01:07:23;;;;;;;4.68;3.50;;;;;;;13.62;65.53;99819.97;686270;28;1177;-81
2023/03/23 01:07:44;;;;;;;6.07;3.95;;;;;;;13.66;65.59;99824.31;683143;28;1028;-81
2023/03/23 01:08:06;;;;;;;5.63;4.00;;;;;;;13.63;65.36;99818.22;682963;28;1346;-82
2023/03/23 01:08:27;;;;;;;5.15;4.07;;;;;;;13.61;65.59;99815.59;685916;28;1109;-81
2023/03/23 01:08:48;;;;;;;4.43;3.75;;;;;;;13.63;65.27;99826.94;686012;28;1593;-82
2023/03/23 01:09:14;;;;;;;4.43;3.42;;;;;;;13.63;65.35;99820.84;688681;28;1230;-81
2023/03/23 01:09:35;;;;;;;4.70;3.40;;;;;;;13.64;65.38;99819.97;688578;28;1183;-82
2023/03/23 01:09:57;;;;;;;5.00;3.60;;;;;;;13.63;65.38;99819.06;685995;28;1135;-81
2023/03/23 01:10:17;;;;;;;4.40;3.60;;;;;;;13.62;65.31;99814.72;688572;28;1229;-80
2023/03/23 01:10:38;;;;;;;4.57;3.63;;;;;;;13.68;65.48;99814.72;688457;28;1233;-81
2023/03/23 01:11:05;;;;;;;4.20;3.50;;;;;;;13.66;65.54;99824.31;685225;28;1372;-81
2023/03/23 01:11:26;;;;;;;5.43;3.97;;;;;;;13.67;65.46;99818.22;688487;28;1246;-82
2023/03/23 01:11:49;;;;;;;5.32;3.70;;;;;;;13.67;65.39;99807.72;685886;28;1294;-82
2023/03/23 01:12:10;;;;;;;6.13;3.70;;;;;;;13.69;65.56;99819.09;680428;29;1349;-82
2023/03/23 01:12:31;;;;;;;4.70;3.33;;;;;;;13.75;64.82;99815.56;685809;28;1363;-81
2023/03/23 01:12:52;;;;;;;4.53;3.78;;;;;;;13.74;65.22;99812.94;688540;28;1424;-81
2023/03/23 01:13:13;;;;;;;4.03;3.70;;;;;;;13.68;65.26;99817.34;683191;29;1352;-82
2023/03/23 01:13:34;;;;;;;4.57;3.90;;;;;;;13.66;64.92;99811.19;685632;28;1242;-81
2023/03/23 01:13:55;;;;;;;4.82;3.80;;;;;;;13.65;65.20;99804.22;686032;28;932;-82
2023/03/23 01:14:17;;;;;;;5.20;3.60;;;;;;;13.69;65.42;99812.94;683066;29;1230;-82
2023/03/23 01:14:38;;;;;;;4.40;3.45;;;;;;;13.67;65.08;99812.09;685800;28;1149;-82
2023/03/23 01:14:59;;;;;;;4.27;3.30;;;;;;;13.69;65.41;99819.09;683268;29;1079;-82
2023/03/23 01:15:21;;;;;;;5.13;3.45;;;;;;;13.66;65.41;99808.56;683273;29;1316;-81
2023/03/23 01:15:42;;;;;;;5.07;3.40;;;;;;;13.71;65.24;99817.31;683126;28;1256;-81
2023/03/23 01:16:03;;;;;;;5.05;3.42;;;;;;;13.63;65.19;99807.75;685667;28;1268;-80
2023/03/23 01:16:24;;;;;;;5.10;3.70;;;;;;;13.67;65.31;99805.09;686064;28;1184;-82
2023/03/23 01:16:45;;;;;;;5.28;3.80;;;;;;;13.73;65.13;99829.56;683040;29;1119;-81
2023/03/23 01:17:05;;;;;;;4.32;3.60;;;;;;;13.70;65.17;99807.72;683119;29;1169;-81
2023/03/23 01:17:28;;;;;;;4.55;3.40;;;;;;;13.71;65.32;99809.47;685844;28;1251;-81
2023/03/23 01:17:49;;;;;;;4.80;3.20;;;;;;;13.71;65.22;99798.13;688548;28;1193;-82
2023/03/23 01:18:09;;;;;;;5.50;3.25;;;;;;;13.65;65.07;99801.59;683042;29;1181;-82
2023/03/23 01:18:30;;;;;;;6.30;3.30;;;;;;;13.69;64.98;99797.22;685669;28;1180;-81
2023/03/23 01:18:51;;;;;;;5.87;3.40;;;;;;;13.70;64.76;99805.09;685761;28;1912;-82
2023/03/23 01:19:12;;;;;;;5.80;3.60;;;;;;;13.68;65.02;99804.22;688329;28;1108;-81
2023/03/23 01:19:33;;;;;;;4.77;3.77;;;;;;;13.71;64.84;99817.31;685883;28;1145;-82
2023/03/23 01:19:53;;;;;;;5.78;3.90;;;;;;;13.64;65.09;99810.34;688403;28;855;-81
2023/03/23 01:20:15;;;;;;;5.35;3.58;;;;;;;13.69;65.01;99813.84;688449;28;1193;-82
2023/03/23 01:20:38;;;;;;;5.00;3.50;;;;;;;13.66;65.13;99813.81;685634;28;1114;-81
2023/03/23 01:21:12;;;;;;;4.80;3.33;;;;;;;13.63;65.31;99802.50;685716;28;1289;-81
2023/03/23 01:21:33;;;;;;;4.85;3.30;;;;;;;13.63;64.98;99818.22;685691;28;1151;-81
2023/03/23 01:21:54;;;;;;;3.85;3.10;;;;;;;13.61;65.26;99799.88;685835;28;1224;-81
2023/03/23 01:22:15;;;;;;;4.70;3.20;;;;;;;13.61;65.33;99810.34;685643;28;1112;-81
2023/03/23 01:22:36;;;;;;;4.28;3.28;;;;;;;13.63;65.23;99798.09;685609;28;1310;-81
2023/03/23 01:23:00;;;;;;;4.28;3.63;;;;;;;13.60;65.55;99802.47;683065;29;1153;-81
2023/03/23 01:23:21;;;;;;;4.22;3.60;;;;;;;13.57;65.30;99804.22;680321;29;1369;-82
2023/03/23 01:23:42;;;;;;;4.05;3.53;;;;;;;13.55;65.44;99794.63;680228;29;1177;-81
2023/03/23 01:24:03;;;;;;;3.97;3.20;;;;;;;13.61;65.25;99810.34;685756;28;1099;-81
2023/03/23 01:24:24;;;;;;;3.90;3.17;;;;;;;13.56;65.36;99823.47;682992;28;1077;-81
2023/03/23 01:24:44;;;;;;;3.72;2.90;;;;;;;13.53;65.52;99797.22;688322;28;1456;-81
2023/03/23 01:25:06;;;;;;;3.47;3.00;;;;;;;13.51;65.72;99798.13;691005;28;1221;-81
2023/03/23 01:25:30;;;;;;;4.80;3.30;;;;;;;13.49;65.58;99794.59;685655;28;1249;-81
2023/03/23 01:25:54;;;;;;;5.80;3.60;;;;;;;13.54;65.63;99813.84;685628;28;1134;-82
2023/03/23 01:26:17;;;;;;;5.82;3.50;;;;;;;13.56;65.52;99807.72;683008;29;1198;-82
2023/03/23 01:26:38;;;;;;;5.65;3.40;;;;;;;13.52;65.61;99802.50;682852;29;1260;-82
2023/03/23 01:27:06;;;;;;;7.55;4.07;;;;;;;13.49;65.58;99795.50;685609;28;1165;-81
2023/03/23 01:27:26;;;;;;;6.85;3.90;;;;;;;13.51;65.86;99809.47;688289;28;1378;-81
2023/03/23 01:27:47;;;;;;;7.57;3.88;;;;;;;13.42;65.48;99785.88;685707;28;1027;-81
2023/03/23 01:28:07;;;;;;;4.40;3.22;;;;;;;13.46;65.77;99805.09;685597;28;1191;-81
2023/03/23 01:28:28;;;;;;;4.50;3.30;;;;;;;13.42;65.78;99799.84;685731;28;1283;-81
2023/03/23 01:28:49;;;;;;;3.70;3.20;;;;;;;13.47;65.88;99798.97;680386;29;1103;-81
2023/03/23 01:29:10;;;;;;;4.13;3.20;;;;;;;13.51;65.78;99813.84;683089;29;1066;-82
2023/03/23 01:29:31;;;;;;;3.90;3.10;;;;;;;13.42;65.82;99794.59;680334;29;1119;-82
2023/03/23 01:29:51;;;;;;;4.05;3.20;;;;;;;13.45;65.86;99788.50;683095;28;1166;-81
2023/03/23 01:30:14;;;;;;;4.80;3.40;;;;;;;13.45;66.02;99798.97;683153;28;928;-82
2023/03/23 01:30:35;;;;;;;4.60;3.50;;;;;;;13.41;65.90;99798.09;685546;28;1356;-81
2023/03/23 01:31:05;;;;;;;3.60;3.20;;;;;;;13.41;65.90;99798.09;685773;28;1271;-81
2023/03/23 01:31:26;;;;;;;3.85;3.10;;;;;;;13.42;66.02;99798.97;682987;29;1235;-81
2023/03/23 01:31:47;;;;;;;3.90;3.10;;;;;;;13.40;66.29;99793.72;682998;29;1212;-82
2023/03/23 01:32:08;;;;;;;3.47;3.00;;;;;;;13.41;66.04;99792.84;685700;28;1024;-81
2023/03/23 01:32:29;;;;;;;3.55;3.10;;;;;;;13.49;65.97;99811.22;690866;28;1308;-81
2023/03/23 01:32:50;;;;;;;3.97;3.20;;;;;;;13.42;65.87;99794.59;685635;28;1313;-81
2023/03/23 01:33:11;;;;;;;4.10;3.10;;;;;;;13.41;65.97;99785.00;680273;29;1129;-81
2023/03/23 01:33:32;;;;;;;3.90;3.03;;;;;;;13.45;66.15;99792.88;680204;29;1455;-81
2023/03/23 01:33:55;;;;;;;3.65;3.15;;;;;;;13.42;66.09;99789.34;683062;28;1272;-82
2023/03/23 01:34:15;;;;;;;3.72;3.17;;;;;;;13.43;66.12;99799.00;680268;29;1284;-82
2023/03/23 01:34:36;;;;;;;3.47;3.08;;;;;;;13.45;65.80;99800.72;683051;28;1093;-81
2023/03/23 01:34:57;;;;;;;3.60;3.00;;;;;;;13.40;65.98;99793.72;682982;29;1286;-81
2023/03/23 01:35:18;;;;;;;3.90;3.20;;;;;;;13.51;66.10;99813.84;685734;28;1210;-81
2023/03/23 01:35:40;;;;;;;4.25;3.20;;;;;;;13.45;66.04;99800.72;682897;28;1298;-81
2023/03/23 01:36:07;;;;;;;4.57;3.33;;;;;;;13.49;65.84;99800.72;683089;29;1030;-81
2023/03/23 01:36:32;;;;;;;4.40;3.50;;;;;;;13.51;65.72;99795.50;682919;29;1049;-81
2023/03/23 01:36:54;;;;;;;4.18;3.60;;;;;;;13.52;65.61;99805.09;685415;28;871;-82
2023/03/23 01:37:15;;;;;;;3.92;3.47;;;;;;;13.47;65.88;99796.34;685593;28;1350;-81
2023/03/23 01:37:36;;;;;;;4.25;3.40;;;;;;;13.54;65.87;99819.94;683019;28;1026;-81
2023/03/23 01:37:58;;;;;;;5.18;3.30;;;;;;;13.51;65.89;99793.75;685521;28;1233;-81
2023/03/23 01:38:18;;;;;;;4.22;2.92;;;;;;;13.55;65.47;99802.47;688432;28;1201;-81
2023/03/23 01:38:39;;;;;;;4.30;3.00;;;;;;;13.56;65.81;99809.47;685662;28;1193;-81
2023/03/23 01:39:03;;;;;;;4.17;3.20;;;;;;;13.61;65.34;99809.47;685502;28;1919;-81
2023/03/23 01:39:23;;;;;;;5.32;3.50;;;;;;;13.56;65.85;99798.97;685695;28;1441;-81
2023/03/23 01:39:44;;;;;;;5.03;3.47;;;;;;;13.57;65.74;99796.38;685552;28;1236;-81
2023/03/23 01:40:05;;;;;;;5.40;3.57;;;;;;;13.59;65.31;99800.72;685596;28;1240;-81
2023/03/23 01:40:28;;;;;;;4.78;3.30;;;;;;;13.64;65.64;99810.34;685072;28;1264;-81
2023/03/23 01:40:50;;;;;;;4.70;3.13;;;;;;;13.61;65.51;99810.34;682998;29;1306;-81
2023/03/23 01:41:11;;;;;;;3.58;3.00;;;;;;;13.64;65.38;99810.34;685588;28;1296;-82
2023/03/23 01:41:35;;;;;;;3.90;3.00;;;;;;;13.60;65.55;99797.22;685656;28;1188;-81
2023/03/23 01:42:00;;;;;;;3.22;2.90;;;;;;;13.65;65.02;99804.22;682912;29;1386;-81
2023/03/23 01:42:25;;;;;;;3.30;3.00;;;;;;;13.68;65.35;99806.84;685505;28;1287;-80
2023/03/23 01:42:46;;;;;;;3.17;2.88;;;;;;;13.60;65.75;99797.22;685552;28;1472;-81
2023/03/23 01:43:14;;;;;;;3.42;3.13;;;;;;;13.64;65.37;99793.75;683021;29;1057;-81
2023/03/23 01:43:36;;;;;;;3.67;3.25;;;;;;;13.70;65.46;99799.84;685541;28;1338;-81
2023/03/23 01:43:57;;;;;;;3.40;3.08;;;;;;;13.69;65.13;99803.34;683119;29;831;-81
2023/03/23 01:44:18;;;;;;;3.47;2.90;;;;;;;13.74;65.09;99810.31;682988;29;1269;-82
2023/03/23 01:44:45;;;;;;;3.35;2.72;;;;;;;13.72;65.32;99797.25;680275;29;2031;-81
2023/03/23 01:45:26;;;;;;;4.07;3.17;;;;;;;13.76;65.13;99792.88;685525;28;1176;-81
2023/03/23 01:45:47;;;;;;;4.30;3.40;;;;;;;13.70;65.08;99799.84;685545;28;1209;-81
2023/03/23 01:46:07;;;;;;;4.10;3.20;;;;;;;13.65;65.12;99787.63;682962;28;1303;-81
2023/03/23 01:46:30;;;;;;;3.97;3.20;;;;;;;13.69;65.21;99791.97;680244;29;1230;-81
2023/03/23 01:46:51;;;;;;;5.28;3.20;;;;;;;13.71;65.28;99785.88;685425;28;1259;-81